Airfield :
LOGIN :

Register | Disclaimer

   EN    FR    IT 

 










Legend :    VFR   Marginal VFR   IFR   Intensive IFR   Very Intensive IFR
Visi :
Ceiling :
>= 8 km
>= 3000ft
5 to 8 km
1000 to 3000 ft
1500m to 5 km
500 to 1000 ft
800 to 1500m
200 to 500 ft
< 800m
< 200 ft
Symbols :   Thunderstorms  Fog  Heavy snow  Heavy precipitations  Wind > 20 kt
SIGMETs :     Misc.  Thunderstorms  Icing  Turbulence  Mountain Waves  Volcanic Ashes






- Airport Elevation : 1306 ft
- IATA code : ACH


LSZR - Alten Rhein

CURRENT METAR :
  • 301520Z VRB02KT 9999 FEW100TCU 27/18 Q1011 NOSIG RMK N

EXPIRED METARs :
  • 301450Z VRB02KT 9999 FEW100TCU 27/20 Q1011 NOSIG RMK N
  • 301420Z VRB04KT 9999 FEW018 SCT050CB 23/19 Q1011 NOSIG RMK M
  • 301350Z VRB04KT 9999 FEW018 SCT050CB 23/19 Q1011 RETSRA RMK M
  • 301320Z 19007KT 180V260 9999 SHRA VCTS FEW041CB SCT050 BKN060 22/19 Q1012 RMK L
  • 301250Z 25008KT 220V280 9999 TSRA FEW045CB SCT050 BKN085 24/18 Q1012 RMK K

TAF TAF LSZR
Valid from the 30 at 15:00 until the 01 at 00:00 UTC


301425Z 3015/3024 27005KT 9999 FEW030
TEMPO 3015/3024 SHRA SCT050TCU
PROB40
TEMPO 3019/3021 28015G35KT 4500 TSRA SCT050CB
ATIS : +41 71 858 51 66



MET'MAP, your aeronautical weather chart ! - Copyright ORBIFLY December 2007 - Disclaimer

ORBIFLY MET'MAP TEAM :

Programming & Development : Alexandra Zaïnal
Original concept : Baudouin d'Aumeries
Technical & hardware support : Manuel Goepfert
Assistance : Marc-Olivier Méhu




SOURCES & CREDITS :

   NOAA